Terminal Aerodrome Forecast
Issued by NWS Glasgow, MT

Home | Current Version | Previous Version | Text Only | Print | Product List | Glossary On
Versions: 1 2 3 4 5 6 7 8 9 10 11 12
831
FTUS45 KGGW 290520
TAFGGW
TAF
KGGW 290520Z 2906/3006 03010KT P6SM SCT150
     FM291200 07007KT P6SM SCT130
     FM291600 11009KT P6SM FEW110=

USA.gov is the U.S. government's official web portal to all federal, state and local government web resources and services.